sensor_id;sensor_type;location;lat;lon;timestamp;temperature;humidity
52941;DHT22;62001;53.366;6.636;2023-04-15T00:00:16;5.50;99.90
52941;DHT22;62001;53.366;6.636;2023-04-15T00:02:42;5.40;99.90
52941;DHT22;62001;53.366;6.636;2023-04-15T00:05:08;5.40;99.90
52941;DHT22;62001;53.366;6.636;2023-04-15T00:07:35;5.40;99.90
52941;DHT22;62001;53.366;6.636;2023-04-15T00:10:01;5.40;99.90
52941;DHT22;62001;53.366;6.636;2023-04-15T00:12:27;5.50;99.90
52941;DHT22;62001;53.366;6.636;2023-04-15T00:14:53;5.60;99.90
52941;DHT22;62001;53.366;6.636;2023-04-15T00:17:19;5.60;99.90
52941;DHT22;62001;53.366;6.636;2023-04-15T00:19:45;5.60;99.90
52941;DHT22;62001;53.366;6.636;2023-04-15T00:22:11;5.50;99.90
52941;DHT22;62001;53.366;6.636;2023-04-15T00:24:38;5.50;99.90
52941;DHT22;62001;53.366;6.636;2023-04-15T00:27:04;5.50;99.90
52941;DHT22;62001;53.366;6.636;2023-04-15T00:29:30;5.50;99.90
52941;DHT22;62001;53.366;6.636;2023-04-15T00:31:56;5.50;99.90
52941;DHT22;62001;53.366;6.636;2023-04-15T00:34:22;5.40;99.90
52941;DHT22;62001;53.366;6.636;2023-04-15T00:36:49;5.50;99.90
52941;DHT22;62001;53.366;6.636;2023-04-15T00:39:15;5.50;99.90
52941;DHT22;62001;53.366;6.636;2023-04-15T00:41:41;5.50;99.90
52941;DHT22;62001;53.366;6.636;2023-04-15T00:44:08;5.50;99.90
52941;DHT22;62001;53.366;6.636;2023-04-15T00:46:35;5.50;99.90
52941;DHT22;62001;53.366;6.636;2023-04-15T00:49:03;5.50;99.90
52941;DHT22;62001;53.366;6.636;2023-04-15T00:51:29;5.50;99.90
52941;DHT22;62001;53.366;6.636;2023-04-15T00:53:58;5.50;99.90
52941;DHT22;62001;53.366;6.636;2023-04-15T00:56:26;5.40;99.90
52941;DHT22;62001;53.366;6.636;2023-04-15T00:58:53;5.40;99.90
52941;DHT22;62001;53.366;6.636;2023-04-15T01:01:24;5.40;99.90
52941;DHT22;62001;53.366;6.636;2023-04-15T01:03:51;5.50;99.90
52941;DHT22;62001;53.366;6.636;2023-04-15T01:06:17;5.40;99.90
52941;DHT22;62001;53.366;6.636;2023-04-15T01:08:44;5.40;99.90
52941;DHT22;62001;53.366;6.636;2023-04-15T01:11:13;5.40;99.90
52941;DHT22;62001;53.366;6.636;2023-04-15T01:13:39;5.40;99.90
52941;DHT22;62001;53.366;6.636;2023-04-15T01:16:06;5.30;99.90
52941;DHT22;62001;53.366;6.636;2023-04-15T01:18:34;5.40;99.90
52941;DHT22;62001;53.366;6.636;2023-04-15T01:21:01;5.30;99.90
52941;DHT22;62001;53.366;6.636;2023-04-15T01:23:28;5.20;99.90
52941;DHT22;62001;53.366;6.636;2023-04-15T01:25:55;5.20;99.90
52941;DHT22;62001;53.366;6.636;2023-04-15T01:28:21;5.10;99.90
52941;DHT22;62001;53.366;6.636;2023-04-15T01:30:47;5.20;99.90
52941;DHT22;62001;53.366;6.636;2023-04-15T01:33:13;5.10;99.90
52941;DHT22;62001;53.366;6.636;2023-04-15T01:35:39;5.10;99.90
52941;DHT22;62001;53.366;6.636;2023-04-15T01:38:06;5.10;99.90
52941;DHT22;62001;53.366;6.636;2023-04-15T01:40:33;5.10;99.90
52941;DHT22;62001;53.366;6.636;2023-04-15T01:43:00;5.00;99.90
52941;DHT22;62001;53.366;6.636;2023-04-15T01:45:27;5.00;99.90
52941;DHT22;62001;53.366;6.636;2023-04-15T01:47:53;4.90;99.90
52941;DHT22;62001;53.366;6.636;2023-04-15T01:50:19;4.80;99.90
52941;DHT22;62001;53.366;6.636;2023-04-15T01:52:45;4.70;99.90
52941;DHT22;62001;53.366;6.636;2023-04-15T01:55:14;4.60;99.90
52941;DHT22;62001;53.366;6.636;2023-04-15T01:57:40;4.60;99.90
52941;DHT22;62001;53.366;6.636;2023-04-15T02:00:07;4.50;99.90
52941;DHT22;62001;53.366;6.636;2023-04-15T02:02:33;4.40;99.90
52941;DHT22;62001;53.366;6.636;2023-04-15T02:04:58;4.30;99.90
52941;DHT22;62001;53.366;6.636;2023-04-15T02:07:25;4.20;99.90
52941;DHT22;62001;53.366;6.636;2023-04-15T02:09:51;4.10;99.90
52941;DHT22;62001;53.366;6.636;2023-04-15T02:12:17;4.00;99.90
52941;DHT22;62001;53.366;6.636;2023-04-15T02:14:43;3.90;99.90
52941;DHT22;62001;53.366;6.636;2023-04-15T02:17:09;3.80;99.90
52941;DHT22;62001;53.366;6.636;2023-04-15T02:19:35;3.70;99.90
52941;DHT22;62001;53.366;6.636;2023-04-15T02:22:01;3.60;99.90
52941;DHT22;62001;53.366;6.636;2023-04-15T02:24:29;3.50;99.90
52941;DHT22;62001;53.366;6.636;2023-04-15T02:26:56;3.50;99.90
52941;DHT22;62001;53.366;6.636;2023-04-15T02:29:22;3.40;99.90
52941;DHT22;62001;53.366;6.636;2023-04-15T02:31:48;3.30;99.90
52941;DHT22;62001;53.366;6.636;2023-04-15T02:34:14;3.30;99.90
52941;DHT22;62001;53.366;6.636;2023-04-15T02:36:40;3.20;99.90
52941;DHT22;62001;53.366;6.636;2023-04-15T02:39:06;3.20;99.90
52941;DHT22;62001;53.366;6.636;2023-04-15T02:41:32;3.20;99.90
52941;DHT22;62001;53.366;6.636;2023-04-15T02:43:58;3.10;99.90
52941;DHT22;62001;53.366;6.636;2023-04-15T02:46:24;3.10;99.90
52941;DHT22;62001;53.366;6.636;2023-04-15T02:48:49;3.10;99.90
52941;DHT22;62001;53.366;6.636;2023-04-15T02:51:18;3.00;99.90
52941;DHT22;62001;53.366;6.636;2023-04-15T02:53:48;3.00;99.90
52941;DHT22;62001;53.366;6.636;2023-04-15T02:56:14;3.00;99.90
52941;DHT22;62001;53.366;6.636;2023-04-15T02:58:43;3.00;99.90
52941;DHT22;62001;53.366;6.636;2023-04-15T03:01:09;2.90;99.90
52941;DHT22;62001;53.366;6.636;2023-04-15T03:03:35;2.90;99.90
52941;DHT22;62001;53.366;6.636;2023-04-15T03:06:01;2.90;99.90
52941;DHT22;62001;53.366;6.636;2023-04-15T03:08:27;2.90;99.90
52941;DHT22;62001;53.366;6.636;2023-04-15T03:10:53;3.00;99.90
52941;DHT22;62001;53.366;6.636;2023-04-15T03:13:19;3.00;99.90
52941;DHT22;62001;53.366;6.636;2023-04-15T03:15:46;3.10;99.90
52941;DHT22;62001;53.366;6.636;2023-04-15T03:18:12;3.20;99.90
52941;DHT22;62001;53.366;6.636;2023-04-15T03:20:37;3.20;99.90
52941;DHT22;62001;53.366;6.636;2023-04-15T03:23:03;3.20;99.90
52941;DHT22;62001;53.366;6.636;2023-04-15T03:25:29;3.30;99.90
52941;DHT22;62001;53.366;6.636;2023-04-15T03:27:55;3.30;99.90
52941;DHT22;62001;53.366;6.636;2023-04-15T03:30:21;3.30;99.90
52941;DHT22;62001;53.366;6.636;2023-04-15T03:32:47;3.30;99.90
52941;DHT22;62001;53.366;6.636;2023-04-15T03:35:13;3.30;99.90
52941;DHT22;62001;53.366;6.636;2023-04-15T03:37:39;3.30;99.90
52941;DHT22;62001;53.366;6.636;2023-04-15T03:40:05;3.30;99.90
52941;DHT22;62001;53.366;6.636;2023-04-15T03:42:31;3.30;99.90
52941;DHT22;62001;53.366;6.636;2023-04-15T03:44:57;3.30;99.90
52941;DHT22;62001;53.366;6.636;2023-04-15T03:47:23;3.30;99.90
52941;DHT22;62001;53.366;6.636;2023-04-15T03:49:49;3.30;99.90
52941;DHT22;62001;53.366;6.636;2023-04-15T03:52:15;3.30;99.90
52941;DHT22;62001;53.366;6.636;2023-04-15T03:54:40;3.40;99.90
52941;DHT22;62001;53.366;6.636;2023-04-15T03:57:06;3.40;99.90
52941;DHT22;62001;53.366;6.636;2023-04-15T03:59:32;3.50;99.90
52941;DHT22;62001;53.366;6.636;2023-04-15T04:01:58;3.60;99.90
52941;DHT22;62001;53.366;6.636;2023-04-15T04:04:24;3.70;99.90
52941;DHT22;62001;53.366;6.636;2023-04-15T04:06:50;3.90;99.90
52941;DHT22;62001;53.366;6.636;2023-04-15T04:09:16;3.80;99.90
52941;DHT22;62001;53.366;6.636;2023-04-15T04:11:41;3.90;99.90
52941;DHT22;62001;53.366;6.636;2023-04-15T04:14:07;3.90;99.90
52941;DHT22;62001;53.366;6.636;2023-04-15T04:16:33;3.90;99.90
52941;DHT22;62001;53.366;6.636;2023-04-15T04:18:59;3.80;99.90
52941;DHT22;62001;53.366;6.636;2023-04-15T04:21:25;3.90;99.90
52941;DHT22;62001;53.366;6.636;2023-04-15T04:23:51;3.90;99.90
52941;DHT22;62001;53.366;6.636;2023-04-15T04:26:17;3.90;99.90
52941;DHT22;62001;53.366;6.636;2023-04-15T04:28:44;3.90;99.90
52941;DHT22;62001;53.366;6.636;2023-04-15T04:31:10;4.00;99.90
52941;DHT22;62001;53.366;6.636;2023-04-15T04:33:36;4.00;99.90
52941;DHT22;62001;53.366;6.636;2023-04-15T04:36:02;4.00;99.90
52941;DHT22;62001;53.366;6.636;2023-04-15T04:38:28;4.00;99.90
52941;DHT22;62001;53.366;6.636;2023-04-15T04:40:54;4.00;99.90
52941;DHT22;62001;53.366;6.636;2023-04-15T04:43:19;4.00;99.90
52941;DHT22;62001;53.366;6.636;2023-04-15T04:45:45;4.10;99.90
52941;DHT22;62001;53.366;6.636;2023-04-15T04:48:11;4.10;99.90
52941;DHT22;62001;53.366;6.636;2023-04-15T04:50:37;4.20;99.90
52941;DHT22;62001;53.366;6.636;2023-04-15T04:53:03;4.20;99.90
52941;DHT22;62001;53.366;6.636;2023-04-15T04:55:29;4.20;99.90
52941;DHT22;62001;53.366;6.636;2023-04-15T04:57:56;4.20;99.90
52941;DHT22;62001;53.366;6.636;2023-04-15T05:00:22;4.20;99.90
52941;DHT22;62001;53.366;6.636;2023-04-15T05:02:48;4.20;99.90
52941;DHT22;62001;53.366;6.636;2023-04-15T05:05:13;4.20;99.90
52941;DHT22;62001;53.366;6.636;2023-04-15T05:07:39;4.30;99.90
52941;DHT22;62001;53.366;6.636;2023-04-15T05:10:06;4.40;99.90
52941;DHT22;62001;53.366;6.636;2023-04-15T05:12:32;4.50;99.90
52941;DHT22;62001;53.366;6.636;2023-04-15T05:14:58;4.50;99.90
52941;DHT22;62001;53.366;6.636;2023-04-15T05:17:23;4.50;99.90
52941;DHT22;62001;53.366;6.636;2023-04-15T05:19:49;4.50;99.90
52941;DHT22;62001;53.366;6.636;2023-04-15T05:22:15;4.70;99.90
52941;DHT22;62001;53.366;6.636;2023-04-15T05:24:41;4.90;99.90
52941;DHT22;62001;53.366;6.636;2023-04-15T05:27:07;5.10;99.90
52941;DHT22;62001;53.366;6.636;2023-04-15T05:29:35;5.50;99.90
52941;DHT22;62001;53.366;6.636;2023-04-15T05:32:01;6.10;99.90
52941;DHT22;62001;53.366;6.636;2023-04-15T05:34:27;6.80;99.90
52941;DHT22;62001;53.366;6.636;2023-04-15T05:36:52;7.30;99.90
52941;DHT22;62001;53.366;6.636;2023-04-15T05:39:18;7.40;99.90
52941;DHT22;62001;53.366;6.636;2023-04-15T05:41:44;7.50;99.90
52941;DHT22;62001;53.366;6.636;2023-04-15T05:44:11;7.60;99.90
52941;DHT22;62001;53.366;6.636;2023-04-15T05:46:37;7.60;99.90
52941;DHT22;62001;53.366;6.636;2023-04-15T05:49:02;7.70;99.90
52941;DHT22;62001;53.366;6.636;2023-04-15T05:51:28;7.70;99.90
52941;DHT22;62001;53.366;6.636;2023-04-15T05:53:54;7.80;99.90
52941;DHT22;62001;53.366;6.636;2023-04-15T05:56:20;7.80;99.90
52941;DHT22;62001;53.366;6.636;2023-04-15T05:58:46;7.80;99.90
52941;DHT22;62001;53.366;6.636;2023-04-15T06:01:12;7.90;99.90
52941;DHT22;62001;53.366;6.636;2023-04-15T06:03:38;8.00;99.90
52941;DHT22;62001;53.366;6.636;2023-04-15T06:06:04;8.10;99.90
52941;DHT22;62001;53.366;6.636;2023-04-15T06:08:30;8.30;99.90
52941;DHT22;62001;53.366;6.636;2023-04-15T06:10:57;8.60;99.90
52941;DHT22;62001;53.366;6.636;2023-04-15T06:13:23;8.70;99.90
52941;DHT22;62001;53.366;6.636;2023-04-15T06:15:48;8.80;99.90
52941;DHT22;62001;53.366;6.636;2023-04-15T06:18:14;8.80;99.90
52941;DHT22;62001;53.366;6.636;2023-04-15T06:20:40;8.70;99.90
52941;DHT22;62001;53.366;6.636;2023-04-15T06:23:06;8.60;99.90
52941;DHT22;62001;53.366;6.636;2023-04-15T06:25:32;8.60;99.90
52941;DHT22;62001;53.366;6.636;2023-04-15T06:27:58;8.50;99.90
52941;DHT22;62001;53.366;6.636;2023-04-15T06:30:23;8.40;99.90
52941;DHT22;62001;53.366;6.636;2023-04-15T06:32:49;8.40;99.90
52941;DHT22;62001;53.366;6.636;2023-04-15T06:35:15;8.50;99.90
52941;DHT22;62001;53.366;6.636;2023-04-15T06:37:41;8.50;99.90
52941;DHT22;62001;53.366;6.636;2023-04-15T06:40:07;8.60;99.90
52941;DHT22;62001;53.366;6.636;2023-04-15T06:42:34;8.60;99.90
52941;DHT22;62001;53.366;6.636;2023-04-15T06:45:01;8.70;99.90
52941;DHT22;62001;53.366;6.636;2023-04-15T06:47:27;8.80;99.90
52941;DHT22;62001;53.366;6.636;2023-04-15T06:49:53;8.80;99.90
52941;DHT22;62001;53.366;6.636;2023-04-15T06:52:19;9.00;99.90
52941;DHT22;62001;53.366;6.636;2023-04-15T06:54:44;9.30;99.90
52941;DHT22;62001;53.366;6.636;2023-04-15T06:57:10;9.50;99.90
52941;DHT22;62001;53.366;6.636;2023-04-15T06:59:36;9.50;99.90
52941;DHT22;62001;53.366;6.636;2023-04-15T07:02:02;9.40;99.90
52941;DHT22;62001;53.366;6.636;2023-04-15T07:04:28;9.30;99.90
52941;DHT22;62001;53.366;6.636;2023-04-15T07:06:54;9.20;99.90
52941;DHT22;62001;53.366;6.636;2023-04-15T07:09:23;9.10;99.90
52941;DHT22;62001;53.366;6.636;2023-04-15T07:11:50;9.00;99.90
52941;DHT22;62001;53.366;6.636;2023-04-15T07:14:16;8.90;99.90
52941;DHT22;62001;53.366;6.636;2023-04-15T07:16:42;8.90;99.90
52941;DHT22;62001;53.366;6.636;2023-04-15T07:19:07;8.80;99.90
52941;DHT22;62001;53.366;6.636;2023-04-15T07:21:33;8.80;99.90
52941;DHT22;62001;53.366;6.636;2023-04-15T07:23:59;8.80;99.90
52941;DHT22;62001;53.366;6.636;2023-04-15T07:26:25;8.80;99.90
52941;DHT22;62001;53.366;6.636;2023-04-15T07:28:51;8.90;99.90
52941;DHT22;62001;53.366;6.636;2023-04-15T07:31:17;8.90;99.90
52941;DHT22;62001;53.366;6.636;2023-04-15T07:33:43;8.80;99.90
52941;DHT22;62001;53.366;6.636;2023-04-15T07:36:09;8.70;99.90
52941;DHT22;62001;53.366;6.636;2023-04-15T07:38:35;8.60;99.90
52941;DHT22;62001;53.366;6.636;2023-04-15T07:41:01;8.60;99.90
52941;DHT22;62001;53.366;6.636;2023-04-15T07:43:27;8.60;99.90
52941;DHT22;62001;53.366;6.636;2023-04-15T07:45:52;8.60;99.90
52941;DHT22;62001;53.366;6.636;2023-04-15T07:48:18;8.50;99.90
52941;DHT22;62001;53.366;6.636;2023-04-15T07:50:44;8.50;99.90
52941;DHT22;62001;53.366;6.636;2023-04-15T07:53:10;8.40;99.90
52941;DHT22;62001;53.366;6.636;2023-04-15T07:55:35;8.40;99.90
52941;DHT22;62001;53.366;6.636;2023-04-15T07:58:01;8.50;99.90
52941;DHT22;62001;53.366;6.636;2023-04-15T08:00:27;8.40;99.90
52941;DHT22;62001;53.366;6.636;2023-04-15T08:02:53;8.30;99.90
52941;DHT22;62001;53.366;6.636;2023-04-15T08:05:21;8.20;99.90
52941;DHT22;62001;53.366;6.636;2023-04-15T08:07:47;8.20;99.90
52941;DHT22;62001;53.366;6.636;2023-04-15T08:10:13;8.20;99.90
52941;DHT22;62001;53.366;6.636;2023-04-15T08:12:39;8.20;99.90
52941;DHT22;62001;53.366;6.636;2023-04-15T08:15:06;8.20;99.90
52941;DHT22;62001;53.366;6.636;2023-04-15T08:17:32;8.20;99.90
52941;DHT22;62001;53.366;6.636;2023-04-15T08:19:58;8.10;99.90
52941;DHT22;62001;53.366;6.636;2023-04-15T08:22:24;8.10;99.90
52941;DHT22;62001;53.366;6.636;2023-04-15T08:24:50;8.10;99.90
52941;DHT22;62001;53.366;6.636;2023-04-15T08:27:16;8.10;99.90
52941;DHT22;62001;53.366;6.636;2023-04-15T08:29:42;8.10;99.90
52941;DHT22;62001;53.366;6.636;2023-04-15T08:32:09;8.20;99.90
52941;DHT22;62001;53.366;6.636;2023-04-15T08:34:35;8.30;99.90
52941;DHT22;62001;53.366;6.636;2023-04-15T08:37:01;8.50;99.90
52941;DHT22;62001;53.366;6.636;2023-04-15T08:39:27;8.50;99.90
52941;DHT22;62001;53.366;6.636;2023-04-15T08:42:00;8.50;99.90
52941;DHT22;62001;53.366;6.636;2023-04-15T08:44:29;8.50;99.90
52941;DHT22;62001;53.366;6.636;2023-04-15T08:47:00;8.40;99.90
52941;DHT22;62001;53.366;6.636;2023-04-15T08:49:28;8.40;99.90
52941;DHT22;62001;53.366;6.636;2023-04-15T08:51:54;8.30;99.90
52941;DHT22;62001;53.366;6.636;2023-04-15T08:54:21;8.30;99.90
52941;DHT22;62001;53.366;6.636;2023-04-15T08:56:47;8.40;99.90
52941;DHT22;62001;53.366;6.636;2023-04-15T08:59:14;8.50;99.90
52941;DHT22;62001;53.366;6.636;2023-04-15T09:01:41;8.60;99.90
52941;DHT22;62001;53.366;6.636;2023-04-15T09:04:07;8.70;99.90
52941;DHT22;62001;53.366;6.636;2023-04-15T09:06:33;8.70;99.90
52941;DHT22;62001;53.366;6.636;2023-04-15T09:08:59;8.80;99.90
52941;DHT22;62001;53.366;6.636;2023-04-15T09:11:25;9.00;99.90
52941;DHT22;62001;53.366;6.636;2023-04-15T09:13:51;9.10;99.90
52941;DHT22;62001;53.366;6.636;2023-04-15T09:16:17;9.10;99.90
52941;DHT22;62001;53.366;6.636;2023-04-15T09:18:44;9.20;99.90
52941;DHT22;62001;53.366;6.636;2023-04-15T09:21:11;9.20;99.90
52941;DHT22;62001;53.366;6.636;2023-04-15T09:23:40;9.20;99.90
52941;DHT22;62001;53.366;6.636;2023-04-15T09:26:06;9.10;99.90
52941;DHT22;62001;53.366;6.636;2023-04-15T09:28:33;9.20;99.90
52941;DHT22;62001;53.366;6.636;2023-04-15T09:31:05;9.10;99.90
52941;DHT22;62001;53.366;6.636;2023-04-15T09:33:31;9.10;99.90
52941;DHT22;62001;53.366;6.636;2023-04-15T09:36:01;9.10;99.90
52941;DHT22;62001;53.366;6.636;2023-04-15T09:38:28;9.10;99.90
52941;DHT22;62001;53.366;6.636;2023-04-15T09:40:54;9.20;99.90
52941;DHT22;62001;53.366;6.636;2023-04-15T09:43:20;9.30;99.90
52941;DHT22;62001;53.366;6.636;2023-04-15T09:45:51;9.40;99.90
52941;DHT22;62001;53.366;6.636;2023-04-15T09:48:22;9.50;99.90
52941;DHT22;62001;53.366;6.636;2023-04-15T09:50:51;9.60;99.90
52941;DHT22;62001;53.366;6.636;2023-04-15T09:53:23;9.50;99.90
52941;DHT22;62001;53.366;6.636;2023-04-15T09:55:50;9.50;99.90
52941;DHT22;62001;53.366;6.636;2023-04-15T09:58:24;9.50;99.90
52941;DHT22;62001;53.366;6.636;2023-04-15T10:00:52;9.50;99.90
52941;DHT22;62001;53.366;6.636;2023-04-15T10:03:20;9.60;99.90
52941;DHT22;62001;53.366;6.636;2023-04-15T10:05:48;9.70;99.90
52941;DHT22;62001;53.366;6.636;2023-04-15T10:08:20;9.60;99.90
52941;DHT22;62001;53.366;6.636;2023-04-15T10:10:47;9.70;99.90
52941;DHT22;62001;53.366;6.636;2023-04-15T10:13:19;9.80;99.90
52941;DHT22;62001;53.366;6.636;2023-04-15T10:15:58;9.90;99.90
52941;DHT22;62001;53.366;6.636;2023-04-15T10:18:26;9.90;99.90
52941;DHT22;62001;53.366;6.636;2023-04-15T10:20:53;9.70;99.90
52941;DHT22;62001;53.366;6.636;2023-04-15T10:23:19;9.70;99.90
52941;DHT22;62001;53.366;6.636;2023-04-15T10:25:46;9.70;99.90
52941;DHT22;62001;53.366;6.636;2023-04-15T10:28:15;9.70;99.90
52941;DHT22;62001;53.366;6.636;2023-04-15T10:30:42;9.60;99.90
52941;DHT22;62001;53.366;6.636;2023-04-15T10:33:09;9.60;99.90
52941;DHT22;62001;53.366;6.636;2023-04-15T10:35:36;9.60;99.90
52941;DHT22;62001;53.366;6.636;2023-04-15T10:38:07;9.60;99.90
52941;DHT22;62001;53.366;6.636;2023-04-15T10:40:49;9.60;99.90
52941;DHT22;62001;53.366;6.636;2023-04-15T10:43:24;9.70;99.90
52941;DHT22;62001;53.366;6.636;2023-04-15T10:45:53;9.70;99.90
52941;DHT22;62001;53.366;6.636;2023-04-15T10:48:19;9.60;99.90
52941;DHT22;62001;53.366;6.636;2023-04-15T10:50:56;9.40;99.90
52941;DHT22;62001;53.366;6.636;2023-04-15T10:53:29;9.50;99.90
52941;DHT22;62001;53.366;6.636;2023-04-15T10:55:56;9.60;99.90
52941;DHT22;62001;53.366;6.636;2023-04-15T10:58:24;9.70;99.90
52941;DHT22;62001;53.366;6.636;2023-04-15T11:00:52;9.70;99.90
52941;DHT22;62001;53.366;6.636;2023-04-15T11:03:39;9.70;99.90
52941;DHT22;62001;53.366;6.636;2023-04-15T11:06:06;9.60;99.90
52941;DHT22;62001;53.366;6.636;2023-04-15T11:08:55;9.50;99.90
52941;DHT22;62001;53.366;6.636;2023-04-15T11:11:21;9.50;99.90
52941;DHT22;62001;53.366;6.636;2023-04-15T11:13:48;9.50;99.90
52941;DHT22;62001;53.366;6.636;2023-04-15T11:16:15;9.40;99.90
52941;DHT22;62001;53.366;6.636;2023-04-15T11:18:40;9.50;99.90
52941;DHT22;62001;53.366;6.636;2023-04-15T11:21:07;9.50;99.90
52941;DHT22;62001;53.366;6.636;2023-04-15T11:23:38;9.40;99.90
52941;DHT22;62001;53.366;6.636;2023-04-15T11:26:09;9.40;99.90
52941;DHT22;62001;53.366;6.636;2023-04-15T11:28:38;9.40;99.90
52941;DHT22;62001;53.366;6.636;2023-04-15T11:31:13;9.40;99.90
52941;DHT22;62001;53.366;6.636;2023-04-15T11:33:55;9.40;99.90
52941;DHT22;62001;53.366;6.636;2023-04-15T11:36:24;9.50;99.90
52941;DHT22;62001;53.366;6.636;2023-04-15T11:38:51;9.50;99.90
52941;DHT22;62001;53.366;6.636;2023-04-15T11:41:21;9.40;99.90
52941;DHT22;62001;53.366;6.636;2023-04-15T11:43:48;9.40;99.90
52941;DHT22;62001;53.366;6.636;2023-04-15T11:46:15;9.40;99.90
52941;DHT22;62001;53.366;6.636;2023-04-15T11:48:45;9.30;99.90
52941;DHT22;62001;53.366;6.636;2023-04-15T11:51:12;9.30;99.90
52941;DHT22;62001;53.366;6.636;2023-04-15T11:53:43;9.40;99.90
52941;DHT22;62001;53.366;6.636;2023-04-15T11:56:19;9.50;99.90
52941;DHT22;62001;53.366;6.636;2023-04-15T11:58:45;9.40;99.90
52941;DHT22;62001;53.366;6.636;2023-04-15T12:01:11;9.40;99.90
52941;DHT22;62001;53.366;6.636;2023-04-15T12:03:41;9.40;99.90
52941;DHT22;62001;53.366;6.636;2023-04-15T12:06:09;9.40;99.90
52941;DHT22;62001;53.366;6.636;2023-04-15T12:14:24;9.10;99.90
52941;DHT22;62001;53.366;6.636;2023-04-15T12:16:59;9.10;99.90
52941;DHT22;62001;53.366;6.636;2023-04-15T12:19:28;9.10;99.90
52941;DHT22;62001;53.366;6.636;2023-04-15T12:21:59;9.00;99.90
52941;DHT22;62001;53.366;6.636;2023-04-15T12:24:25;9.00;99.90
52941;DHT22;62001;53.366;6.636;2023-04-15T12:26:54;9.10;99.90
52941;DHT22;62001;53.366;6.636;2023-04-15T12:29:25;9.10;99.90
52941;DHT22;62001;53.366;6.636;2023-04-15T12:31:56;9.20;99.90
52941;DHT22;62001;53.366;6.636;2023-04-15T12:34:31;9.30;99.90
52941;DHT22;62001;53.366;6.636;2023-04-15T12:37:00;9.30;99.90
52941;DHT22;62001;53.366;6.636;2023-04-15T12:39:27;9.30;99.90
52941;DHT22;62001;53.366;6.636;2023-04-15T12:41:54;9.30;99.90
52941;DHT22;62001;53.366;6.636;2023-04-15T12:44:22;9.20;99.90
52941;DHT22;62001;53.366;6.636;2023-04-15T12:46:49;9.10;99.90
52941;DHT22;62001;53.366;6.636;2023-04-15T12:49:15;9.10;99.90
52941;DHT22;62001;53.366;6.636;2023-04-15T12:51:43;9.00;99.90
52941;DHT22;62001;53.366;6.636;2023-04-15T12:54:10;8.90;99.90
52941;DHT22;62001;53.366;6.636;2023-04-15T12:56:36;8.90;99.90
52941;DHT22;62001;53.366;6.636;2023-04-15T12:59:02;8.80;99.90
52941;DHT22;62001;53.366;6.636;2023-04-15T13:01:28;8.80;99.90
52941;DHT22;62001;53.366;6.636;2023-04-15T13:03:53;8.70;99.90
52941;DHT22;62001;53.366;6.636;2023-04-15T13:06:20;8.80;99.90
52941;DHT22;62001;53.366;6.636;2023-04-15T13:08:46;8.70;99.90
52941;DHT22;62001;53.366;6.636;2023-04-15T13:11:11;8.70;99.90
52941;DHT22;62001;53.366;6.636;2023-04-15T13:13:37;8.70;99.90
52941;DHT22;62001;53.366;6.636;2023-04-15T13:16:03;8.70;99.90
52941;DHT22;62001;53.366;6.636;2023-04-15T13:18:29;8.70;99.90
52941;DHT22;62001;53.366;6.636;2023-04-15T13:20:56;8.70;99.90
52941;DHT22;62001;53.366;6.636;2023-04-15T13:23:21;8.70;99.90
52941;DHT22;62001;53.366;6.636;2023-04-15T13:25:47;8.70;99.90
52941;DHT22;62001;53.366;6.636;2023-04-15T13:28:13;8.60;99.90
52941;DHT22;62001;53.366;6.636;2023-04-15T13:30:39;8.70;99.90
52941;DHT22;62001;53.366;6.636;2023-04-15T13:33:05;8.70;99.90
52941;DHT22;62001;53.366;6.636;2023-04-15T13:35:34;8.70;99.90
52941;DHT22;62001;53.366;6.636;2023-04-15T13:38:00;8.70;99.90
52941;DHT22;62001;53.366;6.636;2023-04-15T13:40:26;8.80;99.90
52941;DHT22;62001;53.366;6.636;2023-04-15T13:42:52;8.80;99.90
52941;DHT22;62001;53.366;6.636;2023-04-15T13:45:18;8.80;99.90
52941;DHT22;62001;53.366;6.636;2023-04-15T13:47:44;8.80;99.90
52941;DHT22;62001;53.366;6.636;2023-04-15T13:50:10;8.80;99.90
52941;DHT22;62001;53.366;6.636;2023-04-15T13:52:36;8.80;99.90
52941;DHT22;62001;53.366;6.636;2023-04-15T13:55:03;8.80;99.90
52941;DHT22;62001;53.366;6.636;2023-04-15T13:57:29;8.80;99.90
52941;DHT22;62001;53.366;6.636;2023-04-15T13:59:56;8.80;99.90
52941;DHT22;62001;53.366;6.636;2023-04-15T14:02:22;8.70;99.90
52941;DHT22;62001;53.366;6.636;2023-04-15T14:04:48;8.70;99.90
52941;DHT22;62001;53.366;6.636;2023-04-15T14:07:14;8.70;99.90
52941;DHT22;62001;53.366;6.636;2023-04-15T14:09:40;8.60;99.90
52941;DHT22;62001;53.366;6.636;2023-04-15T14:12:06;8.60;99.90
52941;DHT22;62001;53.366;6.636;2023-04-15T14:14:32;8.50;99.90
52941;DHT22;62001;53.366;6.636;2023-04-15T14:16:58;8.50;99.90
52941;DHT22;62001;53.366;6.636;2023-04-15T14:19:24;8.50;99.90
52941;DHT22;62001;53.366;6.636;2023-04-15T14:21:49;8.50;99.90
52941;DHT22;62001;53.366;6.636;2023-04-15T14:24:15;8.50;99.90
52941;DHT22;62001;53.366;6.636;2023-04-15T14:26:42;8.50;99.90
52941;DHT22;62001;53.366;6.636;2023-04-15T14:29:09;8.50;99.90
52941;DHT22;62001;53.366;6.636;2023-04-15T14:31:36;8.40;99.90
52941;DHT22;62001;53.366;6.636;2023-04-15T14:34:01;8.40;99.90
52941;DHT22;62001;53.366;6.636;2023-04-15T14:36:27;8.40;99.90
52941;DHT22;62001;53.366;6.636;2023-04-15T14:38:53;8.40;99.90
52941;DHT22;62001;53.366;6.636;2023-04-15T14:41:19;8.40;99.90
52941;DHT22;62001;53.366;6.636;2023-04-15T14:43:45;8.40;99.90
52941;DHT22;62001;53.366;6.636;2023-04-15T14:46:11;8.30;99.90
52941;DHT22;62001;53.366;6.636;2023-04-15T14:48:36;8.30;99.90
52941;DHT22;62001;53.366;6.636;2023-04-15T14:51:02;8.40;99.90
52941;DHT22;62001;53.366;6.636;2023-04-15T14:53:28;8.30;99.90
52941;DHT22;62001;53.366;6.636;2023-04-15T14:55:54;8.30;99.90
52941;DHT22;62001;53.366;6.636;2023-04-15T14:58:20;8.30;99.90
52941;DHT22;62001;53.366;6.636;2023-04-15T15:00:47;8.30;99.90
52941;DHT22;62001;53.366;6.636;2023-04-15T15:03:13;8.30;99.90
52941;DHT22;62001;53.366;6.636;2023-04-15T15:05:40;8.30;99.90
52941;DHT22;62001;53.366;6.636;2023-04-15T15:08:07;8.30;99.90
52941;DHT22;62001;53.366;6.636;2023-04-15T15:10:34;8.30;99.90
52941;DHT22;62001;53.366;6.636;2023-04-15T15:13:03;8.30;99.90
52941;DHT22;62001;53.366;6.636;2023-04-15T15:15:29;8.30;99.90
52941;DHT22;62001;53.366;6.636;2023-04-15T15:17:54;8.20;99.90
52941;DHT22;62001;53.366;6.636;2023-04-15T15:20:20;8.20;99.90
52941;DHT22;62001;53.366;6.636;2023-04-15T15:22:47;8.20;99.90
52941;DHT22;62001;53.366;6.636;2023-04-15T15:25:13;8.20;99.90
52941;DHT22;62001;53.366;6.636;2023-04-15T15:27:39;8.20;99.90
52941;DHT22;62001;53.366;6.636;2023-04-15T15:30:05;8.20;99.90
52941;DHT22;62001;53.366;6.636;2023-04-15T15:32:31;8.20;99.90
52941;DHT22;62001;53.366;6.636;2023-04-15T15:34:57;8.20;99.90
52941;DHT22;62001;53.366;6.636;2023-04-15T15:37:23;8.20;99.90
52941;DHT22;62001;53.366;6.636;2023-04-15T15:39:48;8.10;99.90
52941;DHT22;62001;53.366;6.636;2023-04-15T15:42:18;8.10;99.90
52941;DHT22;62001;53.366;6.636;2023-04-15T15:44:44;8.20;99.90
52941;DHT22;62001;53.366;6.636;2023-04-15T15:47:10;8.10;99.90